Time;durP1;ratioP1;P1;durP2;ratioP2;P2;SDS_P1;SDS_P2;PMS_P1;PMS_P2;Temp;Humidity;BMP_temperature;BMP_pressure;BME280_temperature;BME280_humidity;BME280_pressure;Samples;Min_cycle;Max_cycle;Signal;HPM_P1;HPM_P2
2022/10/12 00:00:43;;;;;;;15.97;5.50;;;;;;;-145.18;100.00;46676.03;6213635;23;20011;-70
2022/10/12 00:03:10;;;;;;;10.60;5.53;;;;;;;-145.18;100.00;46677.97;6213306;23;20023;-70
2022/10/12 00:05:36;;;;;;;9.27;4.67;;;;;;;-145.18;100.00;46674.06;6214246;23;20008;-70
2022/10/12 00:08:02;;;;;;;9.90;4.90;;;;;;;-145.18;100.00;46672.13;6213486;23;20292;-69
2022/10/12 00:10:28;;;;;;;11.37;5.60;;;;;;;-145.18;100.00;46670.16;6213728;23;20043;-69
2022/10/12 00:12:53;;;;;;;12.83;6.50;;;;;;;-145.18;100.00;46679.94;6213377;23;20009;-69
2022/10/12 00:15:18;;;;;;;10.07;5.07;;;;;;;-145.18;100.00;46676.03;6213908;23;20537;-69
2022/10/12 00:17:44;;;;;;;9.17;4.53;;;;;;;-145.18;100.00;46676.03;6213144;23;20013;-69
2022/10/12 00:20:10;;;;;;;9.53;5.23;;;;;;;-145.18;100.00;46689.69;6213483;23;20012;-69
2022/10/12 00:22:35;;;;;;;13.23;6.00;;;;;;;-145.18;100.00;46681.88;6213060;23;20163;-69
2022/10/12 00:25:01;;;;;;;17.50;6.57;;;;;;;-145.18;100.00;46676.03;6213839;23;20005;-69
2022/10/12 00:27:26;;;;;;;20.47;7.37;;;;;;;-145.18;100.00;46674.06;6213416;23;20462;-69
2022/10/12 00:29:51;;;;;;;13.93;6.50;;;;;;;-145.18;100.00;46664.31;6213525;23;20004;-69
2022/10/12 00:32:17;;;;;;;9.53;6.13;;;;;;;-145.18;100.00;46672.13;6213386;23;20012;-69
2022/10/12 00:34:43;;;;;;;11.70;4.93;;;;;;;-145.18;100.00;46672.13;6213206;23;20004;-69
2022/10/12 00:37:08;;;;;;;9.63;3.90;;;;;;;-145.18;100.00;46676.03;6213540;23;20315;-69
2022/10/12 00:39:34;;;;;;;9.77;4.67;;;;;;;-145.18;100.00;46672.13;6213395;23;20019;-69
2022/10/12 00:41:59;;;;;;;11.63;4.60;;;;;;;-145.18;100.00;46670.16;6213210;23;20005;-70
2022/10/12 00:44:41;;;;;;;7.40;4.50;;;;;;;-145.18;100.00;46668.22;6213810;23;20579;-69
2022/10/12 00:47:37;;;;;;;5.33;3.93;;;;;;;-145.18;100.00;46672.13;6213466;23;20004;-69
2022/10/12 00:50:12;;;;;;;7.25;4.50;;;;;;;-145.18;100.00;46672.13;6201214;23;20242;-69
2022/10/12 00:52:55;;;;;;;9.20;4.50;;;;;;;-145.18;100.00;46672.13;6212897;23;20008;-69
2022/10/12 00:55:23;;;;;;;8.30;4.17;;;;;;;-145.18;100.00;46668.22;6213402;23;20234;-69
2022/10/12 00:57:50;;;;;;;14.87;5.23;;;;;;;-145.18;100.00;46670.16;6212652;23;20279;-69
2022/10/12 01:00:17;;;;;;;8.47;4.70;;;;;;;-145.18;100.00;46670.16;6213688;23;20265;-69
2022/10/12 01:02:44;;;;;;;8.33;4.30;;;;;;;-145.18;100.00;46670.16;6212345;23;20226;-69
2022/10/12 01:05:11;;;;;;;11.47;4.47;;;;;;;-145.18;100.00;46670.16;6213365;23;20250;-69
2022/10/12 01:07:36;;;;;;;9.07;4.33;;;;;;;-145.18;100.00;46676.03;6212808;23;20288;-69
2022/10/12 01:10:02;;;;;;;10.47;5.00;;;;;;;-145.18;100.00;46672.13;6213411;23;20230;-69
2022/10/12 01:12:28;;;;;;;10.77;4.70;;;;;;;-145.18;100.00;46676.03;6212850;23;20573;-69
2022/10/12 01:14:53;;;;;;;7.00;4.80;;;;;;;-145.18;100.00;46674.06;6213039;23;20214;-69
2022/10/12 01:17:59;;;;;;;7.53;4.90;;;;;;;-145.18;100.00;46674.06;6212937;23;20471;-69
2022/10/12 01:21:03;;;;;;;6.17;4.63;;;;;;;-145.18;100.00;46668.22;6213308;23;20013;-69
2022/10/12 01:23:56;;;;;;;9.23;4.73;;;;;;;-145.18;100.00;46672.13;6212186;23;20325;-69
2022/10/12 01:26:36;;;;;;;8.87;4.50;;;;;;;-145.18;100.00;46676.03;6212669;23;20309;-70
2022/10/12 01:29:10;;;;;;;8.07;4.67;;;;;;;-145.18;100.00;46670.16;6213420;23;20298;-69
2022/10/12 01:31:58;;;;;;;7.73;4.80;;;;;;;-145.18;100.00;46668.22;6212345;23;20237;-69
2022/10/12 01:34:35;;;;;;;4.27;3.30;;;;;;;-145.18;100.00;46668.22;6212964;23;20219;-69
2022/10/12 01:37:10;;;;;;;7.27;4.27;;;;;;;-145.18;100.00;46668.22;6212671;23;20675;-69
2022/10/12 01:39:42;;;;;;;8.93;3.75;;;;;;;-145.18;100.00;46674.06;6212874;23;20620;-69
2022/10/12 01:42:15;;;;;;;7.03;4.47;;;;;;;-145.18;100.00;46670.16;6212871;23;20067;-69
2022/10/12 01:44:40;;;;;;;11.00;4.57;;;;;;;-145.18;100.00;46666.25;6212800;23;20238;-69
2022/10/12 01:47:05;;;;;;;8.03;4.20;;;;;;;-145.18;100.00;46666.25;6212542;23;20696;-69
2022/10/12 01:49:33;;;;;;;9.87;4.70;;;;;;;-145.18;100.00;46666.25;6212873;23;20346;-69
2022/10/12 01:52:18;;;;;;;8.87;4.80;;;;;;;-145.18;100.00;46668.22;6212770;23;20004;-69
2022/10/12 01:55:10;;;;;;;10.07;4.87;;;;;;;-145.18;100.00;46660.41;6212773;23;20230;-69
2022/10/12 01:57:54;;;;;;;11.83;5.30;;;;;;;-145.18;100.00;46676.03;6212213;23;20276;-69
2022/10/12 02:00:19;;;;;;;4.93;4.00;;;;;;;-145.18;100.00;46674.06;6213013;23;20694;-69
2022/10/12 02:03:09;;;;;;;5.40;4.13;;;;;;;-145.18;100.00;46677.97;6211854;23;20230;-69
2022/10/12 02:05:47;;;;;;;8.10;4.00;;;;;;;-145.18;100.00;46668.22;6212840;23;20008;-69
2022/10/12 02:08:24;;;;;;;5.43;4.00;;;;;;;-145.18;100.00;46666.25;6212435;23;20297;-69
2022/10/12 02:11:03;;;;;;;7.57;4.27;;;;;;;-145.18;100.00;46672.13;6212369;23;20226;-69
2022/10/12 02:13:33;;;;;;;9.47;4.40;;;;;;;-145.18;100.00;46676.03;6212333;23;20218;-69
2022/10/12 02:16:02;;;;;;;6.97;4.37;;;;;;;-145.18;100.00;46670.16;6213064;23;20312;-69
2022/10/12 02:18:28;;;;;;;5.40;3.73;;;;;;;-145.18;100.00;46672.13;6212200;23;20250;-69
2022/10/12 02:20:58;;;;;;;5.97;3.50;;;;;;;-145.18;100.00;46674.06;6212785;23;20255;-69
2022/10/12 02:23:24;;;;;;;6.23;3.83;;;;;;;-145.18;100.00;46679.94;6212530;23;20000;-69
2022/10/12 02:25:52;;;;;;;5.67;3.97;;;;;;;-145.18;100.00;46670.16;6212413;23;20249;-69
2022/10/12 02:28:21;;;;;;;4.03;3.00;;;;;;;-145.18;100.00;46679.94;6212352;23;20020;-69
2022/10/12 02:30:55;;;;;;;6.23;3.53;;;;;;;-145.18;100.00;46674.06;6212570;23;20955;-69
2022/10/12 02:33:28;;;;;;;12.90;5.27;;;;;;;-145.18;100.00;46672.13;6212273;23;20233;-69
2022/10/12 02:36:08;;;;;;;7.57;4.33;;;;;;;-145.18;100.00;46676.03;6212387;23;20230;-69
2022/10/12 02:38:40;;;;;;;12.30;5.10;;;;;;;-145.18;100.00;46672.13;6212337;23;20297;-69
2022/10/12 02:41:11;;;;;;;8.50;5.67;;;;;;;-145.18;100.00;46676.03;6212688;23;20218;-69
2022/10/12 02:44:03;;;;;;;11.03;5.33;;;;;;;-145.18;100.00;46672.13;6211538;23;20226;-69
2022/10/12 02:46:30;;;;;;;10.13;5.00;;;;;;;-145.18;100.00;46670.16;6212647;23;20249;-69
2022/10/12 02:48:58;;;;;;;9.13;5.60;;;;;;;-145.18;100.00;46670.16;6211636;23;20248;-69
2022/10/12 02:51:26;;;;;;;11.80;4.90;;;;;;;-145.18;100.00;46664.31;6212371;23;20297;-69
2022/10/12 02:53:52;;;;;;;7.97;4.87;;;;;;;-145.18;100.00;46670.16;6211813;23;20763;-69
2022/10/12 02:56:17;;;;;;;6.27;4.97;;;;;;;-145.18;100.00;46668.22;6213311;23;20245;-69
2022/10/12 02:58:44;;;;;;;7.53;4.90;;;;;;;-145.18;100.00;46666.25;6211634;23;20396;-69
2022/10/12 03:03:58;;;;;;;6.07;4.17;;;;;;;-145.18;100.00;46666.25;6177413;23;20259;-69
2022/10/12 03:06:24;;;;;;;6.30;4.30;;;;;;;-145.18;100.00;46672.13;6182246;23;20243;-68
2022/10/12 03:08:49;;;;;;;7.07;4.10;;;;;;;-145.18;100.00;46664.31;6181966;23;20027;-68
2022/10/12 03:11:14;;;;;;;5.50;3.80;;;;;;;-145.18;100.00;46664.31;6182280;23;20453;-69
2022/10/12 03:13:40;;;;;;;5.10;3.50;;;;;;;-145.18;100.00;46672.13;6181673;23;20035;-68
2022/10/12 03:16:10;;;;;;;7.57;3.47;;;;;;;-145.18;100.00;46674.06;6182318;23;20017;-68
2022/10/12 03:18:36;;;;;;;7.23;4.00;;;;;;;-145.18;100.00;46672.13;6181975;23;20093;-68
2022/10/12 03:21:01;;;;;;;6.57;3.97;;;;;;;-145.18;100.00;46670.16;6182379;23;20568;-69
2022/10/12 03:23:27;;;;;;;4.70;3.40;;;;;;;-145.18;100.00;46668.22;6181784;23;20241;-69
2022/10/12 03:25:52;;;;;;;5.70;3.60;;;;;;;-145.18;100.00;46668.22;6182231;23;20008;-69
2022/10/12 03:28:18;;;;;;;4.77;3.13;;;;;;;-145.18;100.00;46666.25;6181543;23;20020;-69
2022/10/12 03:30:44;;;;;;;6.73;3.20;;;;;;;-145.18;100.00;46664.31;6182631;23;20017;-68
2022/10/12 03:33:09;;;;;;;4.20;3.10;;;;;;;-145.18;100.00;46672.13;6181505;23;20040;-68
2022/10/12 03:35:35;;;;;;;4.63;3.13;;;;;;;-145.18;100.00;46666.25;6182127;23;20008;-69
2022/10/12 03:38:00;;;;;;;6.80;3.50;;;;;;;-145.18;100.00;46670.16;6182183;23;20041;-69
2022/10/12 03:40:25;;;;;;;7.27;3.60;;;;;;;-145.18;100.00;46670.16;6182321;23;20099;-69
2022/10/12 03:42:51;;;;;;;6.40;3.50;;;;;;;-145.18;100.00;46674.06;6181895;23;20115;-68
2022/10/12 03:45:16;;;;;;;10.50;5.10;;;;;;;-145.18;100.00;46670.16;6182308;23;20013;-69
2022/10/12 03:47:41;;;;;;;11.80;6.40;;;;;;;-145.18;100.00;46668.22;6181490;23;20430;-68
2022/10/12 03:50:07;;;;;;;7.10;5.27;;;;;;;-145.18;100.00;46674.06;6182122;23;20017;-68
2022/10/12 03:52:33;;;;;;;12.63;5.83;;;;;;;-145.18;100.00;46672.13;6181935;23;20025;-68
2022/10/12 03:54:58;;;;;;;10.57;6.83;;;;;;;-145.18;100.00;46670.16;6183168;23;20386;-69
2022/10/12 03:57:23;;;;;;;10.43;4.27;;;;;;;-145.18;100.00;46672.13;6183696;23;20469;-68
2022/10/12 03:59:49;;;;;;;17.33;4.40;;;;;;;-145.18;100.00;46672.13;6184019;23;20063;-68
2022/10/12 04:02:14;;;;;;;29.00;4.07;;;;;;;-145.18;100.00;46672.13;6182820;23;20342;-69
2022/10/12 04:04:39;;;;;;;6.40;3.50;;;;;;;-145.18;100.00;46672.13;6183764;23;20009;-68
2022/10/12 04:07:05;;;;;;;6.03;3.70;;;;;;;-145.18;100.00;46676.03;6183427;23;20001;-68
2022/10/12 04:09:31;;;;;;;5.10;3.83;;;;;;;-145.18;100.00;46670.16;6183859;23;20013;-68
2022/10/12 04:11:56;;;;;;;4.83;3.90;;;;;;;-145.18;100.00;46672.13;6183239;23;20009;-68
2022/10/12 04:14:21;;;;;;;6.20;3.77;;;;;;;-145.18;100.00;46668.22;6183749;23;20012;-68
2022/10/12 04:16:47;;;;;;;11.17;4.60;;;;;;;-145.18;100.00;46666.25;6183768;23;20009;-68
2022/10/12 04:19:12;;;;;;;7.03;4.17;;;;;;;-145.18;100.00;46664.31;6183175;23;20016;-68
2022/10/12 04:21:38;;;;;;;6.70;4.37;;;;;;;-145.18;100.00;46668.22;6183699;23;20457;-68
2022/10/12 04:24:04;;;;;;;5.03;3.20;;;;;;;-145.18;100.00;46662.34;6183087;23;20004;-69
2022/10/12 04:26:29;;;;;;;11.97;4.47;;;;;;;-145.18;100.00;46670.16;6182261;23;20013;-69
2022/10/12 04:28:55;;;;;;;6.63;4.23;;;;;;;-145.18;100.00;46662.34;6183194;23;20013;-69
2022/10/12 04:31:20;;;;;;;7.87;3.67;;;;;;;-145.18;100.00;46660.41;6182808;23;20015;-68
2022/10/12 04:33:45;;;;;;;9.60;4.10;;;;;;;-145.18;100.00;46662.34;6183148;23;20758;-68
2022/10/12 04:36:11;;;;;;;4.13;2.97;;;;;;;-145.18;100.00;46662.34;6183417;23;20005;-69
2022/10/12 04:38:36;;;;;;;7.93;3.93;;;;;;;-145.18;100.00;46656.50;6183519;23;20036;-68
2022/10/12 04:41:02;;;;;;;5.67;3.10;;;;;;;-145.18;100.00;46668.22;6183869;23;20013;-69
2022/10/12 04:43:28;;;;;;;4.30;3.13;;;;;;;-145.18;100.00;46670.16;6183070;23;20005;-68
2022/10/12 04:45:58;;;;;;;9.70;4.03;;;;;;;-145.18;100.00;46668.22;6183783;23;20012;-68
2022/10/12 04:48:25;;;;;;;4.67;3.40;;;;;;;-145.18;100.00;46660.41;6183012;23;20020;-68
2022/10/12 04:50:51;;;;;;;4.90;3.40;;;;;;;-145.18;100.00;46658.44;6183762;23;20769;-68
2022/10/12 04:53:16;;;;;;;7.50;4.77;;;;;;;-145.18;100.00;46660.41;6181929;23;20322;-68
2022/10/12 04:55:41;;;;;;;6.23;4.50;;;;;;;-145.18;100.00;46664.31;6183845;23;20033;-68
2022/10/12 04:58:07;;;;;;;8.83;4.47;;;;;;;-145.18;100.00;46660.41;6182518;23;20080;-68
2022/10/12 05:00:32;;;;;;;11.50;4.70;;;;;;;-145.18;100.00;46662.34;6183703;23;20025;-69
2022/10/12 05:02:57;;;;;;;12.47;4.77;;;;;;;-145.18;100.00;46668.22;6181728;23;20021;-68
2022/10/12 05:05:23;;;;;;;11.17;5.00;;;;;;;-145.18;100.00;46666.25;6181325;23;20474;-68
2022/10/12 05:07:48;;;;;;;12.80;4.47;;;;;;;-145.18;100.00;46666.25;6180118;23;20083;-69
2022/10/12 05:10:13;;;;;;;6.70;4.17;;;;;;;-145.18;100.00;46666.25;6182104;23;20366;-68
2022/10/12 05:12:39;;;;;;;10.97;4.70;;;;;;;-145.18;100.00;46664.31;6180690;23;20016;-68
2022/10/12 05:15:05;;;;;;;9.67;4.13;;;;;;;-145.18;100.00;46664.31;6181273;23;20013;-68
2022/10/12 05:17:30;;;;;;;22.47;3.70;;;;;;;-145.18;100.00;46668.22;6180119;23;20106;-69
2022/10/12 05:19:55;;;;;;;12.37;4.27;;;;;;;-145.18;100.00;46670.16;6181341;23;20426;-68
2022/10/12 05:22:21;;;;;;;9.50;3.80;;;;;;;-145.18;100.00;46668.22;6180860;23;20001;-68
2022/10/12 05:24:46;;;;;;;6.63;3.30;;;;;;;-145.18;100.00;46664.31;6181335;23;20060;-67
2022/10/12 05:27:11;;;;;;;6.53;3.20;;;;;;;-145.18;100.00;46672.13;6180513;23;20020;-68
2022/10/12 05:29:37;;;;;;;9.47;3.73;;;;;;;-145.18;100.00;46666.25;6181830;23;20133;-68
2022/10/12 05:32:02;;;;;;;6.77;3.30;;;;;;;-145.18;100.00;46666.25;6181671;23;20063;-68
2022/10/12 05:34:28;;;;;;;6.93;3.80;;;;;;;-145.18;100.00;46666.25;6181061;23;20012;-68
2022/10/12 05:36:53;;;;;;;7.87;3.80;;;;;;;-145.18;100.00;46668.22;6181708;23;20012;-68
2022/10/12 05:39:18;;;;;;;8.17;4.13;;;;;;;-145.18;100.00;46676.03;6181151;23;20013;-68
2022/10/12 05:41:43;;;;;;;12.07;5.23;;;;;;;-145.18;100.00;46666.25;6180975;23;20088;-68
2022/10/12 05:44:09;;;;;;;16.40;6.00;;;;;;;-145.18;100.00;46668.22;6181468;23;20059;-68
2022/10/12 05:46:34;;;;;;;16.00;7.17;;;;;;;-145.18;100.00;46662.34;6180534;23;20009;-69
2022/10/12 05:49:00;;;;;;;13.93;6.90;;;;;;;-145.18;100.00;46666.25;6181110;23;20005;-68
2022/10/12 05:51:25;;;;;;;12.07;6.63;;;;;;;-145.18;100.00;46664.31;6181919;23;20426;-68
2022/10/12 05:53:50;;;;;;;13.17;7.40;;;;;;;-145.18;100.00;46668.22;6181392;23;20027;-68
2022/10/12 05:56:16;;;;;;;12.20;6.80;;;;;;;-145.18;100.00;46664.31;6180700;23;20060;-68
2022/10/12 05:58:41;;;;;;;11.83;5.63;;;;;;;-145.18;100.00;46666.25;6180356;23;20013;-68
2022/10/12 06:01:09;;;;;;;12.50;6.50;;;;;;;-145.18;100.00;46666.25;6180789;23;20078;-69
2022/10/12 06:03:35;;;;;;;15.53;5.90;;;;;;;-145.18;100.00;46668.22;6134791;23;1091663;-68
2022/10/12 06:06:01;;;;;;;18.70;7.60;;;;;;;-145.18;100.00;46670.16;6182226;23;20100;-69
2022/10/12 06:08:28;;;;;;;12.90;7.37;;;;;;;-145.18;100.00;46664.31;6181605;23;20047;-68
2022/10/12 06:10:54;;;;;;;11.97;6.47;;;;;;;-145.18;100.00;46666.25;6181776;23;20691;-70
2022/10/12 06:13:19;;;;;;;10.03;6.07;;;;;;;-145.18;100.00;46670.16;6182039;23;20231;-68
2022/10/12 06:15:45;;;;;;;15.40;7.60;;;;;;;-145.18;100.00;46664.31;6183073;23;20143;-68
2022/10/12 06:18:12;;;;;;;14.37;7.33;;;;;;;-145.18;100.00;46668.22;6181513;23;20461;-68
2022/10/12 06:20:37;;;;;;;9.50;5.77;;;;;;;-145.18;100.00;46660.41;6182504;23;20223;-68
2022/10/12 06:23:03;;;;;;;14.60;6.17;;;;;;;-145.18;100.00;46662.34;6181844;23;20223;-68
2022/10/12 06:25:28;;;;;;;11.43;5.90;;;;;;;-145.18;100.00;46670.16;6182683;23;20034;-68
2022/10/12 06:27:54;;;;;;;10.97;6.17;;;;;;;-145.18;100.00;46658.44;6182161;23;20009;-68
2022/10/12 06:30:19;;;;;;;11.63;6.53;;;;;;;-145.18;100.00;46666.25;6182416;23;20017;-68
2022/10/12 06:32:45;;;;;;;12.37;6.83;;;;;;;-145.18;100.00;46664.31;6181923;23;20009;-68
2022/10/12 06:35:10;;;;;;;10.17;6.30;;;;;;;-145.18;100.00;46668.22;6182374;23;20043;-68
2022/10/12 06:37:35;;;;;;;15.50;7.30;;;;;;;-145.18;100.00;46664.31;6182496;23;20100;-68
2022/10/12 06:40:01;;;;;;;8.07;6.10;;;;;;;-145.18;100.00;46664.31;6182173;23;20054;-68
2022/10/12 06:42:26;;;;;;;13.03;6.53;;;;;;;-145.18;100.00;46666.25;6182278;23;20316;-68
2022/10/12 06:44:51;;;;;;;18.57;7.90;;;;;;;-145.18;100.00;46666.25;6182455;23;20111;-68
2022/10/12 06:47:17;;;;;;;19.93;7.67;;;;;;;-145.18;100.00;46662.34;6182458;23;20009;-68
2022/10/12 06:49:42;;;;;;;13.93;8.10;;;;;;;-145.18;100.00;46670.16;6182204;23;20009;-68
2022/10/12 06:52:07;;;;;;;20.83;8.23;;;;;;;-145.18;100.00;46660.41;6182045;23;20009;-68
2022/10/12 06:54:33;;;;;;;11.93;6.37;;;;;;;-145.18;100.00;46662.34;6181748;23;20009;-68
2022/10/12 06:56:58;;;;;;;18.17;8.63;;;;;;;-145.18;100.00;46660.41;6181455;23;20032;-68
2022/10/12 06:59:24;;;;;;;18.27;9.77;;;;;;;-145.18;100.00;46660.41;6180205;23;20075;-69
2022/10/12 07:01:49;;;;;;;20.93;9.13;;;;;;;-145.18;100.00;46658.44;6176702;23;20709;-69
2022/10/12 07:04:18;;;;;;;16.80;8.17;;;;;;;-145.18;100.00;46658.44;6181947;23;20013;-68
2022/10/12 07:06:43;;;;;;;16.33;8.87;;;;;;;-145.18;100.00;46664.31;6182280;23;20012;-68
2022/10/12 07:09:09;;;;;;;22.07;10.43;;;;;;;-145.18;100.00;46660.41;6181549;23;20235;-68
2022/10/12 07:11:34;;;;;;;18.67;11.17;;;;;;;-145.18;100.00;46660.41;6181817;23;20132;-68
2022/10/12 07:14:00;;;;;;;20.20;10.73;;;;;;;-145.18;100.00;46660.41;6181714;23;20001;-69
2022/10/12 07:16:25;;;;;;;14.30;9.00;;;;;;;-145.18;100.00;46660.41;6182760;23;20087;-69
2022/10/12 07:18:50;;;;;;;14.37;9.37;;;;;;;-145.18;100.00;46658.44;6181413;23;20009;-68
2022/10/12 07:21:16;;;;;;;12.80;9.20;;;;;;;-145.18;100.00;46658.44;6182279;23;20013;-68
2022/10/12 07:23:41;;;;;;;23.13;9.40;;;;;;;-145.18;100.00;46660.41;6181428;23;20012;-68
2022/10/12 07:26:07;;;;;;;20.27;10.33;;;;;;;-145.18;100.00;46656.50;6182441;23;20016;-68
2022/10/12 07:28:34;;;;;;;20.97;10.60;;;;;;;-145.18;100.00;46660.41;6181596;23;20017;-68
2022/10/12 07:31:04;;;;;;;19.60;11.30;;;;;;;-145.18;100.00;46656.50;6183844;23;19997;-68
2022/10/12 07:33:32;;;;;;;28.50;12.23;;;;;;;-145.18;100.00;46654.53;6182145;23;20227;-69
2022/10/12 07:35:58;;;;;;;20.47;12.07;;;;;;;-145.18;100.00;46658.44;6183681;23;20319;-68
2022/10/12 07:38:24;;;;;;;20.77;12.70;;;;;;;-145.18;100.00;46656.50;6183423;23;20255;-68
2022/10/12 07:40:49;;;;;;;24.40;11.73;;;;;;;-145.18;100.00;46656.50;6183885;23;20740;-68
2022/10/12 07:43:15;;;;;;;22.43;11.97;;;;;;;-145.18;100.00;46656.50;6183501;23;20013;-69
2022/10/12 07:45:40;;;;;;;23.90;11.87;;;;;;;-145.18;100.00;46652.59;6183968;23;20009;-68
2022/10/12 07:48:05;;;;;;;24.57;11.63;;;;;;;-145.18;100.00;46658.44;6183145;23;20104;-68
2022/10/12 07:50:31;;;;;;;26.77;12.13;;;;;;;-145.18;100.00;46652.59;6183858;23;20009;-68
2022/10/12 07:52:56;;;;;;;25.43;12.20;;;;;;;-145.18;100.00;46654.53;6183146;23;20016;-68
2022/10/12 07:55:22;;;;;;;24.70;12.37;;;;;;;-145.18;100.00;46654.53;6183872;23;20019;-69
2022/10/12 07:57:47;;;;;;;22.43;12.27;;;;;;;-145.18;100.00;46650.63;6183433;23;20042;-68
2022/10/12 08:00:13;;;;;;;20.13;12.23;;;;;;;-145.18;100.00;46650.63;6183550;23;20013;-69
2022/10/12 08:02:38;;;;;;;20.50;12.97;;;;;;;-145.18;100.00;46650.63;6183107;23;20048;-69
2022/10/12 08:05:04;;;;;;;31.10;15.53;;;;;;;-145.18;100.00;46650.63;6183194;23;20124;-69
2022/10/12 08:07:29;;;;;;;29.57;16.73;;;;;;;-145.18;100.00;46652.59;6183643;23;20016;-69
2022/10/12 08:09:55;;;;;;;26.23;15.03;;;;;;;-145.18;100.00;46654.53;6183246;23;20461;-69
2022/10/12 08:12:20;;;;;;;33.70;16.27;;;;;;;-145.18;100.00;46652.59;6183650;23;20005;-69
2022/10/12 08:14:46;;;;;;;30.23;14.80;;;;;;;-145.18;100.00;46648.69;6183052;23;20028;-69
2022/10/12 08:17:11;;;;;;;28.03;15.30;;;;;;;-145.18;100.00;46652.59;6183453;23;20032;-69
2022/10/12 08:19:36;;;;;;;25.60;16.30;;;;;;;-145.18;100.00;46652.59;6183329;23;20024;-69
2022/10/12 08:22:02;;;;;;;32.43;17.60;;;;;;;-145.18;100.00;46656.50;6183437;23;20312;-69
2022/10/12 08:24:27;;;;;;;38.07;19.47;;;;;;;-145.18;100.00;46658.44;6183188;23;20335;-69
2022/10/12 08:26:52;;;;;;;33.83;18.10;;;;;;;-145.18;100.00;46652.59;6183536;23;20028;-69
2022/10/12 08:29:18;;;;;;;30.10;16.70;;;;;;;-145.18;100.00;46652.59;6181983;23;20067;-69
2022/10/12 08:31:43;;;;;;;28.83;16.07;;;;;;;-145.18;100.00;46658.44;6181712;23;20502;-69
2022/10/12 08:34:09;;;;;;;31.20;16.73;;;;;;;-145.18;100.00;46658.44;6181901;23;20071;-69
2022/10/12 08:36:34;;;;;;;31.03;16.10;;;;;;;-145.18;100.00;46660.41;6183234;23;20044;-69
2022/10/12 08:38:59;;;;;;;33.77;16.13;;;;;;;-145.18;100.00;46664.31;6156474;23;20082;-69
2022/10/12 08:41:45;;;;;;;24.30;15.67;;;;;;;-145.18;100.00;46672.13;6182753;23;20005;-69
2022/10/12 08:44:28;;;;;;;27.77;14.32;;;;;;;-145.18;100.00;46670.16;6182546;23;20009;-69
2022/10/12 08:47:08;;;;;;;34.87;14.33;;;;;;;-145.18;100.00;46672.13;6183073;23;20001;-69
2022/10/12 08:49:35;;;;;;;29.47;14.60;;;;;;;-145.18;100.00;46672.13;6182671;23;20305;-69
2022/10/12 08:52:05;;;;;;;22.90;13.53;;;;;;;-145.18;100.00;46674.06;6153898;23;20309;-69
2022/10/12 08:54:40;;;;;;;30.00;14.30;;;;;;;-145.18;100.00;46674.06;6182808;23;20224;-69
2022/10/12 08:57:13;;;;;;;24.33;12.07;;;;;;;-145.18;100.00;46674.06;6182754;23;20306;-69
2022/10/12 08:59:38;;;;;;;24.63;13.70;;;;;;;-145.18;100.00;46670.16;6180154;23;20254;-69
2022/10/12 09:02:23;;;;;;;28.87;13.93;;;;;;;-145.18;100.00;46664.31;6182634;23;20239;-70
2022/10/12 09:04:55;;;;;;;28.47;13.33;;;;;;;-145.18;100.00;46658.44;6179963;23;20004;-69
2022/10/12 09:07:30;;;;;;;30.77;14.50;;;;;;;-145.18;100.00;46652.59;6181748;23;20688;-69
2022/10/12 09:10:02;;;;;;;24.95;13.73;;;;;;;-145.18;100.00;46646.72;6182541;23;20005;-69
2022/10/12 09:13:06;;;;;;;29.07;13.10;;;;;;;-145.18;100.00;46607.66;6183138;23;20016;-69
2022/10/12 09:15:46;;;;;;;25.67;13.33;;;;;;;-145.18;100.00;46593.97;6182217;23;20298;-69
2022/10/12 09:18:30;;;;;;;30.77;14.10;;;;;;;-145.18;100.00;46570.53;6179201;23;20013;-69
2022/10/12 09:20:57;;;;;;;27.87;14.13;;;;;;;-145.18;100.00;46562.72;6181857;23;20281;-69
2022/10/12 09:23:43;;;;;;;24.43;12.77;;;;;;;-145.18;100.00;46558.81;6182143;23;20005;-69
2022/10/12 09:26:18;;;;;;;25.17;13.20;;;;;;;-145.18;100.00;46549.06;6182487;23;20093;-69
2022/10/12 09:28:52;;;;;;;23.95;13.45;;;;;;;-145.18;100.00;46556.88;6181173;23;19997;-69
2022/10/12 09:31:48;;;;;;;33.47;14.07;;;;;;;-145.18;100.00;46564.69;6181974;23;20070;-69
2022/10/12 09:34:13;;;;;;;27.92;14.05;;;;;;;-145.18;100.00;46564.69;6181913;23;20084;-69
2022/10/12 09:36:40;;;;;;;28.83;14.30;;;;;;;-145.18;100.00;46570.53;6181859;23;20035;-69
2022/10/12 09:39:18;;;;;;;25.30;14.00;;;;;;;-145.18;100.00;46570.53;6181696;23;20013;-69
2022/10/12 09:41:45;;;;;;;20.90;13.93;;;;;;;-145.18;100.00;46576.41;6182637;23;20005;-69
2022/10/12 09:44:41;;;;;;;26.97;12.73;;;;;;;-145.18;100.00;46574.44;6181567;23;20005;-69
2022/10/12 09:47:30;;;;;;;25.43;12.93;;;;;;;-145.18;100.00;46595.94;6150200;23;20009;-69
2022/10/12 09:50:06;;;;;;;29.10;14.03;;;;;;;-145.18;100.00;46592.03;6178467;23;20197;-69
2022/10/12 09:52:34;;;;;;;26.50;12.20;;;;;;;-145.18;100.00;46603.75;6180922;23;20020;-69
2022/10/12 09:55:05;;;;;;;29.67;12.83;;;;;;;-145.18;100.00;46601.78;6180934;23;20009;-70
2022/10/12 09:57:42;;;;;;;22.03;12.80;;;;;;;-145.18;100.00;46607.66;6182129;23;20029;-69
2022/10/12 10:00:27;;;;;;;21.33;12.17;;;;;;;-145.18;100.00;46621.31;6181913;23;20083;-69
2022/10/12 10:02:54;;;;;;;25.87;12.73;;;;;;;-145.18;100.00;46613.50;6182282;23;20092;-69
2022/10/12 10:05:28;;;;;;;28.27;12.93;;;;;;;-145.18;100.00;46611.56;6181857;23;20013;-69
2022/10/12 10:08:13;;;;;;;26.23;12.73;;;;;;;-145.18;100.00;46609.59;6181980;23;19997;-69
2022/10/12 10:10:56;;;;;;;29.93;13.07;;;;;;;-145.18;100.00;46601.78;6182495;23;20374;-69
2022/10/12 10:13:34;;;;;;;27.07;12.60;;;;;;;-145.18;100.00;46623.28;6180278;23;20017;-69
2022/10/12 10:16:04;;;;;;;25.00;12.73;;;;;;;-145.18;100.00;46646.72;6181391;23;20016;-69
2022/10/12 10:18:36;;;;;;;25.17;11.77;;;;;;;-145.18;100.00;46648.69;6179530;23;20405;-69
2022/10/12 10:21:04;;;;;;;28.00;11.50;;;;;;;-145.18;100.00;46660.41;6181271;23;20079;-69
2022/10/12 10:23:43;;;;;;;26.17;12.17;;;;;;;-145.18;100.00;46666.25;6181217;23;20295;-70
2022/10/12 10:26:12;;;;;;;27.73;12.13;;;;;;;-145.18;100.00;46715.09;6182176;23;20040;-70
2022/10/12 10:28:43;;;;;;;28.97;13.07;;;;;;;-145.18;100.00;46720.94;6180311;23;20016;-70
2022/10/12 10:31:12;;;;;;;26.27;12.63;;;;;;;-145.18;100.00;46715.09;6180131;23;20562;-70
2022/10/12 10:33:38;;;;;;;28.47;13.00;;;;;;;-145.18;100.00;46754.16;6181230;23;20009;-70
2022/10/12 10:36:05;;;;;;;25.43;13.07;;;;;;;-145.18;100.00;46754.16;6182181;23;20315;-70
2022/10/12 10:38:54;;;;;;;35.77;15.03;;;;;;;-145.18;100.00;46695.56;6180376;23;20009;-70
2022/10/12 10:41:26;;;;;;;33.10;12.90;;;;;;;-145.18;100.00;46719.00;6182438;23;20094;-70
2022/10/12 10:43:51;;;;;;;25.10;12.30;;;;;;;-145.18;100.00;46793.22;6182237;23;20072;-70
2022/10/12 10:46:24;;;;;;;23.23;12.73;;;;;;;-145.18;100.00;46955.34;6181847;23;20087;-70
2022/10/12 10:48:52;;;;;;;23.67;11.37;;;;;;;-145.18;100.00;46957.31;6181908;23;20019;-70
2022/10/12 10:51:18;;;;;;;23.60;12.30;;;;;;;-145.18;100.00;47262.06;6182303;23;20040;-71
2022/10/12 10:53:49;;;;;;;25.90;12.17;;;;;;;-145.18;100.00;47265.97;6182222;23;20033;-71
2022/10/12 10:56:24;;;;;;;30.07;13.03;;;;;;;-145.18;100.00;47205.41;6182162;23;20152;-70
2022/10/12 10:58:56;;;;;;;29.33;13.48;;;;;;;-145.18;100.00;46898.72;6181560;23;20100;-70
2022/10/12 11:01:35;;;;;;;27.73;13.27;;;;;;;-145.18;100.00;46814.72;6182000;23;19997;-71
2022/10/12 11:04:06;;;;;;;28.70;12.70;;;;;;;-145.18;100.00;47078.44;6182090;23;20013;-71
2022/10/12 11:06:39;;;;;;;26.57;12.67;;;;;;;-145.18;100.00;47330.44;6183595;23;20016;-71
2022/10/12 11:09:28;;;;;;;23.20;13.07;;;;;;;-145.18;100.00;47363.66;6182634;23;20001;-71
2022/10/12 11:12:11;;;;;;;23.53;13.07;;;;;;;-145.18;100.00;47371.47;6174498;23;20147;-70
2022/10/12 11:14:44;;;;;;;26.50;14.50;;;;;;;-145.18;100.00;47418.38;6183764;23;20063;-71